Time;durP1;ratioP1;P1;durP2;ratioP2;P2;SDS_P1;SDS_P2;PMS_P1;PMS_P2;Temp;Humidity;BMP_temperature;BMP_pressure;BME280_temperature;BME280_humidity;BME280_pressure;Samples;Min_cycle;Max_cycle;Signal;HPM_P1;HPM_P2
2021/04/15 00:01:54;;;;;;;51.70;28.35;;;8.80;91.50;;;;;;5106434;28;20024;-81
2021/04/15 00:04:20;;;;;;;49.88;27.95;;;8.80;91.50;;;;;;5098472;28;20043;-80
2021/04/15 00:06:46;;;;;;;43.88;26.83;;;8.80;91.60;;;;;;5096396;28;20044;-81
2021/04/15 00:09:16;;;;;;;42.42;26.60;;;8.90;91.60;;;;;;5092955;28;20351;-80
2021/04/15 00:11:43;;;;;;;40.63;23.75;;;8.90;91.60;;;;;;5098411;28;20035;-80
2021/04/15 00:14:11;;;;;;;41.83;25.25;;;9.00;91.60;;;;;;5095903;28;20024;-79
2021/04/15 00:16:40;;;;;;;42.13;24.83;;;9.00;91.60;;;;;;5097129;28;20021;-80
2021/04/15 00:19:07;;;;;;;38.05;24.63;;;9.10;91.50;;;;;;5091289;28;20091;-80
2021/04/15 00:21:33;;;;;;;44.30;26.00;;;9.10;91.50;;;;;;5090882;28;20029;-80
2021/04/15 00:23:59;;;;;;;44.55;26.27;;;9.10;91.50;;;;;;5092525;28;20020;-80
2021/04/15 00:26:26;;;;;;;43.95;25.95;;;9.20;91.50;;;;;;5090750;28;20058;-80
2021/04/15 00:28:53;;;;;;;60.90;35.97;;;9.20;91.40;;;;;;5089129;28;20020;-81
2021/04/15 00:31:19;;;;;;;70.80;38.88;;;9.20;91.30;;;;;;5093589;28;20073;-80
2021/04/15 00:33:45;;;;;;;74.97;41.78;;;9.20;91.30;;;;;;5094109;28;20347;-79
2021/04/15 00:36:11;;;;;;;74.68;40.17;;;9.20;91.40;;;;;;5074985;28;20111;-80
2021/04/15 00:38:38;;;;;;;67.13;35.80;;;9.20;91.30;;;;;;5090483;28;20024;-80
2021/04/15 00:41:11;;;;;;;63.80;35.72;;;9.20;91.40;;;;;;5090960;28;20031;-80
2021/04/15 00:43:45;;;;;;;61.60;34.22;;;9.20;91.40;;;;;;5094581;28;20024;-79
2021/04/15 00:46:39;;;;;;;66.57;34.25;;;9.20;91.40;;;;;;5094859;28;20418;-79
2021/04/15 00:49:05;;;;;;;65.32;34.25;;;9.20;91.40;;;;;;5089231;28;20354;-79
2021/04/15 00:51:37;;;;;;;70.65;38.03;;;9.20;91.50;;;;;;5094542;28;20024;-80
2021/04/15 00:54:08;;;;;;;71.50;38.38;;;9.20;91.60;;;;;;5085740;28;20078;-80
2021/04/15 00:56:35;;;;;;;72.70;38.30;;;9.20;92.00;;;;;;5087931;28;20027;-80
2021/04/15 00:59:05;;;;;;;72.22;38.33;;;9.20;91.70;;;;;;5086645;28;20020;-80
2021/04/15 01:01:31;;;;;;;68.18;38.25;;;9.20;91.90;;;;;;5091147;28;20039;-80
2021/04/15 01:03:57;;;;;;;77.95;40.03;;;9.20;91.90;;;;;;5076997;28;20033;-80
2021/04/15 01:06:23;;;;;;;67.25;38.95;;;9.20;92.10;;;;;;5076071;28;20016;-80
2021/04/15 01:08:49;;;;;;;75.72;39.95;;;9.20;92.10;;;;;;5081467;28;20099;-80
2021/04/15 01:11:35;;;;;;;77.57;40.83;;;9.20;92.30;;;;;;5092755;28;20028;-80
2021/04/15 01:14:32;;;;;;;77.00;40.40;;;9.20;92.40;;;;;;5092792;28;20056;-80
2021/04/15 01:17:06;;;;;;;78.95;40.70;;;9.20;92.40;;;;;;5093946;28;20024;-80
2021/04/15 01:20:02;;;;;;;75.25;39.85;;;9.20;92.60;;;;;;5090127;28;20070;-80
2021/04/15 01:22:38;;;;;;;76.00;40.28;;;9.20;92.60;;;;;;5087195;28;20466;-79
2021/04/15 01:25:15;;;;;;;76.78;39.67;;;9.20;92.60;;;;;;5093525;28;20063;-79
2021/04/15 01:27:50;;;;;;;75.00;40.28;;;9.20;92.70;;;;;;5073615;28;20048;-79
2021/04/15 01:30:31;;;;;;;77.47;41.13;;;9.20;92.80;;;;;;5094770;28;20069;-79
2021/04/15 01:33:50;;;;;;;79.22;40.47;;;9.20;92.80;;;;;;5092326;28;20115;-79
2021/04/15 01:36:24;;;;;;;75.85;41.15;;;9.20;92.80;;;;;;5013697;28;20108;-79
2021/04/15 01:38:56;;;;;;;72.78;39.50;;;9.20;92.90;;;;;;5003761;28;20056;-79
2021/04/15 01:41:30;;;;;;;66.68;37.63;;;9.20;93.00;;;;;;5043603;28;20032;-79
2021/04/15 01:44:01;;;;;;;72.95;37.58;;;9.20;93.00;;;;;;5084464;28;20450;-79
2021/04/15 01:46:32;;;;;;;72.10;36.95;;;9.20;92.90;;;;;;5086623;28;20051;-79
2021/04/15 01:49:02;;;;;;;66.00;36.03;;;9.20;92.90;;;;;;5081665;28;20020;-79
2021/04/15 01:51:51;;;;;;;63.83;34.53;;;9.20;92.90;;;;;;5079273;28;20024;-80
2021/04/15 01:54:37;;;;;;;63.40;35.83;;;9.20;92.90;;;;;;5084688;28;20024;-79
2021/04/15 01:57:09;;;;;;;69.90;38.05;;;9.20;92.90;;;;;;5087033;28;20024;-80
2021/04/15 01:59:47;;;;;;;68.95;37.95;;;9.10;92.90;;;;;;5085339;28;20020;-79
2021/04/15 02:02:20;;;;;;;61.53;32.35;;;9.10;92.90;;;;;;5073723;28;20023;-79
2021/04/15 02:05:08;;;;;;;59.00;32.72;;;9.10;93.00;;;;;;5092681;28;20020;-79
2021/04/15 02:07:40;;;;;;;59.53;31.30;;;9.20;93.00;;;;;;5085764;28;20044;-79
2021/04/15 02:10:09;;;;;;;56.03;32.42;;;9.20;93.00;;;;;;5073156;28;20021;-80
2021/04/15 02:12:40;;;;;;;64.07;33.22;;;9.20;92.90;;;;;;5088889;28;20024;-80
2021/04/15 02:15:08;;;;;;;56.83;31.23;;;9.20;92.90;;;;;;5097420;28;20028;-80
2021/04/15 02:17:37;;;;;;;55.50;31.20;;;9.20;92.80;;;;;;5088479;28;20059;-79
2021/04/15 02:20:12;;;;;;;50.40;29.75;;;9.20;92.80;;;;;;5090672;28;20028;-79
2021/04/15 02:22:55;;;;;;;57.75;33.00;;;9.20;93.00;;;;;;5100347;28;20034;-79
2021/04/15 02:25:41;;;;;;;59.05;32.90;;;9.20;92.70;;;;;;5086674;28;20082;-79
2021/04/15 02:28:36;;;;;;;55.35;31.00;;;9.20;92.80;;;;;;5080383;28;20026;-79
2021/04/15 02:31:12;;;;;;;71.03;39.42;;;9.20;92.80;;;;;;5083519;28;20060;-79
2021/04/15 02:33:47;;;;;;;72.63;38.88;;;9.20;92.80;;;;;;5092012;28;20020;-79
2021/04/15 02:36:15;;;;;;;73.65;38.15;;;9.10;92.80;;;;;;5092714;28;20019;-79
2021/04/15 02:38:46;;;;;;;64.63;35.58;;;9.10;92.80;;;;;;5092150;28;20466;-79
2021/04/15 02:41:17;;;;;;;59.08;33.45;;;9.20;92.80;;;;;;5091424;28;20054;-79
2021/04/15 02:43:50;;;;;;;63.85;35.65;;;9.10;92.80;;;;;;5091740;28;20028;-78
2021/04/15 02:46:26;;;;;;;60.15;30.23;;;9.10;92.70;;;;;;5092787;28;20073;-79
2021/04/15 02:48:56;;;;;;;53.97;28.35;;;9.10;92.80;;;;;;5082365;28;20021;-78
2021/04/15 02:51:27;;;;;;;57.58;29.73;;;9.00;92.80;;;;;;5087950;28;20016;-78
2021/04/15 02:54:08;;;;;;;51.58;28.52;;;9.00;92.80;;;;;;5093480;28;20095;-79
2021/04/15 02:56:39;;;;;;;56.35;29.50;;;9.00;92.90;;;;;;5092614;28;20024;-79
2021/04/15 02:59:11;;;;;;;56.33;31.40;;;9.00;92.80;;;;;;5091423;28;20035;-80
2021/04/15 03:01:42;;;;;;;58.58;33.15;;;9.00;92.90;;;;;;5091471;28;20023;-80
2021/04/15 03:04:19;;;;;;;73.50;41.88;;;9.00;92.90;;;;;;5092996;28;20020;-80
2021/04/15 03:06:46;;;;;;;74.57;41.72;;;9.00;93.00;;;;;;5093520;28;20354;-80
2021/04/15 03:09:14;;;;;;;80.30;44.47;;;9.00;93.00;;;;;;5086014;28;20031;-80
2021/04/15 03:12:01;;;;;;;80.45;46.20;;;9.00;93.10;;;;;;5075129;28;20028;-79
2021/04/15 03:14:56;;;;;;;80.72;45.08;;;9.00;93.10;;;;;;5081697;28;20081;-80
2021/04/15 03:17:23;;;;;;;71.10;40.90;;;9.00;93.20;;;;;;5084198;28;20032;-80
2021/04/15 03:19:59;;;;;;;68.57;38.45;;;9.00;93.30;;;;;;5095312;28;20027;-80
2021/04/15 03:22:29;;;;;;;61.10;33.72;;;9.10;93.40;;;;;;5079168;28;20025;-80
2021/04/15 03:24:59;;;;;;;58.65;31.08;;;9.10;93.40;;;;;;5074978;28;20035;-81
2021/04/15 03:27:41;;;;;;;60.47;31.05;;;9.20;93.50;;;;;;5090174;28;20115;-80
2021/04/15 03:30:15;;;;;;;56.08;30.33;;;9.20;93.40;;;;;;5095212;28;20016;-81
2021/04/15 03:32:59;;;;;;;51.13;28.38;;;9.20;93.50;;;;;;5096373;28;20016;-81
2021/04/15 03:35:45;;;;;;;61.17;33.92;;;9.30;93.50;;;;;;5095232;28;20119;-81
2021/04/15 03:38:18;;;;;;;;;;;9.30;93.50;;;;;;5089512;28;20012;-81
2021/04/15 03:40:55;;;;;;;54.95;29.95;;;9.30;93.30;;;;;;5087603;28;19908;-80
2021/04/15 03:43:26;;;;;;;58.88;29.55;;;9.30;93.30;;;;;;5092962;28;20060;-72
2021/04/15 03:46:23;;;;;;;61.10;31.42;;;9.30;93.50;;;;;;5083513;28;20081;-81
2021/04/15 03:48:54;;;;;;;60.50;31.17;;;9.40;93.50;;;;;;5077082;28;20029;-80
2021/04/15 03:51:24;;;;;;;56.38;29.45;;;9.50;93.50;;;;;;5092851;28;20077;-80
2021/04/15 03:54:01;;;;;;;66.57;33.17;;;9.40;93.40;;;;;;5083839;28;20032;-74
2021/04/15 03:56:35;;;;;;;75.00;34.85;;;9.50;93.50;;;;;;5082579;28;20492;-83
2021/04/15 03:59:05;;;;;;;61.60;34.03;;;9.50;93.50;;;;;;5094122;28;20020;-84
2021/04/15 04:01:36;;;;;;;63.22;34.20;;;9.50;93.50;;;;;;5092472;28;20024;-77
2021/04/15 04:04:12;;;;;;;58.10;30.40;;;9.50;93.50;;;;;;5091818;28;20028;-81
2021/04/15 04:06:42;;;;;;;49.15;27.83;;;9.50;93.60;;;;;;5093777;28;20020;-78
2021/04/15 04:09:31;;;;;;;56.40;32.08;;;9.50;93.60;;;;;;5090105;28;20078;-84
2021/04/15 04:12:00;;;;;;;64.35;35.53;;;9.50;93.80;;;;;;5092676;28;20032;-91
2021/04/15 04:14:39;;;;;;;65.28;34.03;;;9.50;94.00;;;;;;5090756;28;20040;-85
2021/04/15 04:17:09;;;;;;;79.93;40.15;;;9.50;94.10;;;;;;5109021;28;20062;-88
2021/04/15 04:19:49;;;;;;;78.20;41.58;;;9.60;94.20;;;;;;5102820;28;20024;-85
2021/04/15 04:22:26;;;;;;;76.50;40.10;;;9.60;94.10;;;;;;5105202;28;20047;-88
2021/04/15 04:25:01;;;;;;;60.53;34.75;;;9.60;94.20;;;;;;5108529;28;20115;-83
2021/04/15 04:27:45;;;;;;;69.03;36.70;;;9.70;94.30;;;;;;5090747;28;20433;-79
2021/04/15 04:30:16;;;;;;;69.50;35.33;;;9.80;94.10;;;;;;5096053;28;20020;-73
2021/04/15 04:32:43;;;;;;;66.25;37.13;;;9.80;93.90;;;;;;5088614;28;20127;-75
2021/04/15 04:35:16;;;;;;;78.80;41.65;;;9.90;93.70;;;;;;5093283;28;20107;-76
2021/04/15 04:37:48;;;;;;;92.45;47.38;;;9.90;93.70;;;;;;5092521;28;20073;-73
2021/04/15 04:40:15;;;;;;;92.10;48.70;;;9.90;93.40;;;;;;5097313;28;20016;-75
2021/04/15 04:42:45;;;;;;;85.13;45.20;;;9.90;93.50;;;;;;5094847;28;20032;-75
2021/04/15 04:45:15;;;;;;;92.50;49.20;;;9.90;93.30;;;;;;5089464;28;20019;-72
2021/04/15 04:47:55;;;;;;;92.15;46.67;;;10.00;93.30;;;;;;5080815;28;20490;-76
2021/04/15 04:50:39;;;;;;;86.15;45.08;;;10.00;93.10;;;;;;5088808;28;20103;-76
2021/04/15 04:53:12;;;;;;;88.13;46.25;;;10.00;93.00;;;;;;5087854;28;20079;-76
2021/04/15 04:55:58;;;;;;;96.32;48.72;;;10.00;92.80;;;;;;5073194;28;20409;-75
2021/04/15 04:58:23;;;;;;;88.20;46.33;;;10.00;92.80;;;;;;5088919;28;20093;-75
2021/04/15 05:00:56;;;;;;;91.38;47.55;;;10.00;92.80;;;;;;5085031;28;20028;-75
2021/04/15 05:03:28;;;;;;;84.47;44.72;;;10.00;92.90;;;;;;5087123;28;20085;-75
2021/04/15 05:06:09;;;;;;;83.40;44.15;;;10.00;92.60;;;;;;5085839;28;20046;-76
2021/04/15 05:09:01;;;;;;;80.28;45.88;;;10.00;92.70;;;;;;5090673;28;20093;-69
2021/04/15 05:11:32;;;;;;;87.68;44.17;;;10.10;92.90;;;;;;5083594;28;20032;-72
2021/04/15 05:13:58;;;;;;;93.43;49.00;;;10.20;92.80;;;;;;5087802;28;20115;-72
2021/04/15 05:16:28;;;;;;;95.65;50.58;;;10.20;92.80;;;;;;5092549;28;20020;-71
2021/04/15 05:18:54;;;;;;;101.00;53.72;;;10.30;92.60;;;;;;5090171;28;20446;-76
2021/04/15 05:21:24;;;;;;;96.25;49.30;;;10.40;92.50;;;;;;5086890;28;20448;-72
2021/04/15 05:24:13;;;;;;;93.90;47.70;;;10.40;92.40;;;;;;5085720;28;20043;-70
2021/04/15 05:26:41;;;;;;;96.65;47.92;;;10.60;92.40;;;;;;5091059;28;20032;-73
2021/04/15 05:29:12;;;;;;;68.80;35.97;;;10.60;92.30;;;;;;5089756;28;20069;-72
2021/04/15 05:31:42;;;;;;;70.07;38.10;;;10.70;92.00;;;;;;5079536;28;20024;-71
2021/04/15 05:34:25;;;;;;;56.70;33.13;;;10.70;91.60;;;;;;5082616;28;20081;-75
2021/04/15 05:36:55;;;;;;;80.00;39.22;;;10.70;91.50;;;;;;5079552;28;20103;-78
2021/04/15 05:39:22;;;;;;;63.92;34.67;;;10.60;91.40;;;;;;5088931;28;20045;-73
2021/04/15 05:41:57;;;;;;;52.45;32.47;;;10.60;91.40;;;;;;5090153;28;20120;-72
2021/04/15 05:45:14;;;;;;;62.88;34.72;;;10.70;91.30;;;;;;5083248;28;20107;-75
2021/04/15 05:48:06;;;;;;;56.88;32.65;;;10.60;91.40;;;;;;5058939;28;20032;-75
2021/04/15 05:50:46;;;;;;;60.50;31.65;;;10.60;91.50;;;;;;5076899;28;20032;-74
2021/04/15 05:53:46;;;;;;;37.40;22.02;;;10.60;91.60;;;;;;5079948;28;20073;-75
2021/04/15 05:56:29;;;;;;;34.50;20.67;;;10.70;91.40;;;;;;5091302;28;20097;-74
2021/04/15 05:59:03;;;;;;;33.35;21.75;;;10.70;91.40;;;;;;5091870;28;20047;-76
2021/04/15 06:01:51;;;;;;;43.08;24.90;;;10.70;91.30;;;;;;5088497;28;20024;-73
2021/04/15 06:04:28;;;;;;;35.70;21.33;;;10.70;91.40;;;;;;5084181;28;20048;-73
2021/04/15 06:06:54;;;;;;;39.35;23.25;;;10.80;91.40;;;;;;5084491;28;20063;-73
2021/04/15 06:09:20;;;;;;;36.28;22.08;;;10.80;91.50;;;;;;5079739;28;20451;-72
2021/04/15 06:12:05;;;;;;;39.90;21.77;;;10.90;91.60;;;;;;5079810;28;20119;-70
2021/04/15 06:14:44;;;;;;;38.07;21.23;;;11.00;91.40;;;;;;5084755;28;20480;-69
2021/04/15 06:17:18;;;;;;;42.47;24.65;;;11.10;91.30;;;;;;5082158;28;20460;-70
2021/04/15 06:19:54;;;;;;;48.25;26.17;;;11.20;91.30;;;;;;5091592;28;20462;-70
2021/04/15 06:22:24;;;;;;;34.63;22.40;;;11.30;91.30;;;;;;5081721;28;20032;-69
2021/04/15 06:24:54;;;;;;;40.33;23.40;;;11.40;91.30;;;;;;5090771;28;20472;-70
2021/04/15 06:27:21;;;;;;;36.20;20.67;;;11.60;91.30;;;;;;5080666;28;20047;-71
2021/04/15 06:30:08;;;;;;;40.58;24.10;;;11.80;91.10;;;;;;5082462;28;20024;-71
2021/04/15 06:32:42;;;;;;;36.75;20.33;;;12.10;91.00;;;;;;5090714;28;20067;-75
2021/04/15 06:35:13;;;;;;;31.05;17.83;;;12.30;90.50;;;;;;5089153;28;20012;-69
2021/04/15 06:37:47;;;;;;;39.65;22.40;;;12.50;88.30;;;;;;5088389;28;20027;-65
2021/04/15 06:40:27;;;;;;;32.97;17.85;;;12.60;88.00;;;;;;5093502;28;20089;-69
2021/04/15 06:43:21;;;;;;;24.83;15.35;;;13.00;87.30;;;;;;5091212;28;20025;-75
2021/04/15 06:46:17;;;;;;;19.25;12.50;;;13.30;84.60;;;;;;5087298;28;20027;-70
2021/04/15 06:49:20;;;;;;;21.73;12.77;;;13.50;82.90;;;;;;5086061;28;20103;-81
2021/04/15 06:52:28;;;;;;;22.17;13.95;;;13.70;82.10;;;;;;5091271;28;20541;-82
2021/04/15 06:55:33;;;;;;;18.70;12.43;;;14.10;82.00;;;;;;5032936;28;20021;-82
2021/04/15 06:57:59;;;;;;;27.73;15.77;;;14.90;81.90;;;;;;5047522;28;20491;-82
2021/04/15 07:00:57;;;;;;;33.05;18.70;;;15.80;81.30;;;;;;5085703;28;20042;-83
2021/04/15 07:03:42;;;;;;;21.60;14.27;;;16.80;78.60;;;;;;5056054;28;20047;-83
2021/04/15 07:06:37;;;;;;;26.05;15.48;;;17.60;75.40;;;;;;5096428;28;20096;-83
2021/04/15 07:09:02;;;;;;;21.35;13.27;;;18.40;71.80;;;;;;5064959;28;20048;-83
2021/04/15 07:11:54;;;;;;;23.73;14.90;;;18.90;69.70;;;;;;5086232;28;20362;-82
2021/04/15 07:15:04;;;;;;;20.73;13.75;;;19.10;66.40;;;;;;5094980;28;20116;-83
2021/04/15 07:17:45;;;;;;;20.30;12.00;;;19.20;65.00;;;;;;5032524;28;20479;-83
2021/04/15 07:20:14;;;;;;;19.60;11.95;;;19.10;62.20;;;;;;5086993;28;20465;-83
2021/04/15 07:22:54;;;;;;;18.13;11.63;;;18.60;61.00;;;;;;5081141;28;20055;-83
2021/04/15 07:25:56;;;;;;;26.77;14.85;;;18.00;61.10;;;;;;5083690;28;20473;-83
2021/04/15 07:28:54;;;;;;;25.17;16.90;;;17.60;62.10;;;;;;5084645;28;20046;-83
2021/04/15 07:31:40;;;;;;;29.33;17.88;;;17.30;62.80;;;;;;5089716;28;20012;-83
2021/04/15 07:34:37;;;;;;;25.58;17.50;;;17.10;64.20;;;;;;5090172;28;20095;-83
2021/04/15 07:37:22;;;;;;;23.10;15.90;;;17.10;65.00;;;;;;5096234;28;20016;-83
2021/04/15 07:40:14;;;;;;;27.23;18.77;;;17.10;64.50;;;;;;5095743;28;20476;-83
2021/04/15 07:42:58;;;;;;;30.35;19.05;;;17.00;64.10;;;;;;5080800;28;20033;-81
2021/04/15 07:45:50;;;;;;;26.98;18.50;;;16.80;64.40;;;;;;5086442;28;20459;-81
2021/04/15 07:48:24;;;;;;;27.50;18.00;;;16.60;64.50;;;;;;5075887;28;20028;-83
2021/04/15 07:51:16;;;;;;;28.58;18.55;;;16.60;65.60;;;;;;5095246;28;20016;-81
2021/04/15 07:53:53;;;;;;;23.02;15.68;;;17.10;67.10;;;;;;5087953;28;20039;-82
2021/04/15 07:56:54;;;;;;;26.13;15.00;;;18.00;66.60;;;;;;5095338;28;20027;-81
2021/04/15 07:59:25;;;;;;;26.63;15.63;;;18.70;63.60;;;;;;5096694;28;20053;-81
2021/04/15 08:02:18;;;;;;;22.65;13.70;;;18.90;63.40;;;;;;5095377;28;20020;-82
2021/04/15 08:05:02;;;;;;;19.25;11.30;;;19.50;62.90;;;;;;5095330;28;20044;-81
2021/04/15 08:08:09;;;;;;;17.33;10.18;;;20.10;61.20;;;;;;5094929;28;20040;-82
2021/04/15 08:10:52;;;;;;;19.80;10.02;;;20.60;57.60;;;;;;5092955;28;20427;-83
2021/04/15 08:13:53;;;;;;;18.98;10.27;;;20.70;55.60;;;;;;5075272;28;20032;-83
2021/04/15 08:16:40;;;;;;;10.98;6.25;;;20.50;55.10;;;;;;5099252;28;20365;-83
2021/04/15 08:19:16;;;;;;;15.65;10.38;;;20.60;53.80;;;;;;5093730;28;20020;-82
2021/04/15 08:21:44;;;;;;;14.57;9.07;;;20.70;54.20;;;;;;5085953;28;20051;-83
2021/04/15 08:24:24;;;;;;;15.77;9.10;;;20.70;52.90;;;;;;5092538;28;20020;-82
2021/04/15 08:27:21;;;;;;;10.73;5.50;;;20.70;52.20;;;;;;5095846;28;20081;-82
2021/04/15 08:30:09;;;;;;;12.65;7.43;;;20.60;52.00;;;;;;5081189;28;20020;-82
2021/04/15 08:32:56;;;;;;;20.73;11.15;;;20.80;51.90;;;;;;5094510;28;20085;-83
2021/04/15 08:35:27;;;;;;;20.10;12.02;;;20.70;52.10;;;;;;5094905;28;20031;-82
2021/04/15 08:38:13;;;;;;;18.00;9.63;;;20.50;51.60;;;;;;5081699;28;20061;-82
2021/04/15 08:40:45;;;;;;;13.35;9.32;;;20.10;52.20;;;;;;5096921;28;20458;-82
2021/04/15 08:43:36;;;;;;;16.05;8.35;;;19.90;53.10;;;;;;5087989;28;20111;-83
2021/04/15 08:46:22;;;;;;;14.82;8.55;;;20.10;52.80;;;;;;5091127;28;20031;-82
2021/04/15 08:49:39;;;;;;;17.30;8.02;;;19.90;51.90;;;;;;5092157;28;20020;-81
2021/04/15 08:52:15;;;;;;;;;;;19.30;52.20;;;;;;5042572;28;20032;-83
2021/04/15 08:54:58;;;;;;;13.48;9.05;;;19.00;53.90;;;;;;5097044;28;19908;-83
2021/04/15 08:57:42;;;;;;;18.20;10.07;;;19.00;53.80;;;;;;5094566;28;20092;-83
2021/04/15 09:00:31;;;;;;;12.07;8.45;;;18.90;54.00;;;;;;5079406;28;20039;-83
2021/04/15 09:03:09;;;;;;;11.70;7.70;;;18.50;53.90;;;;;;5080158;28;20378;-83
2021/04/15 09:06:00;;;;;;;15.98;8.35;;;18.10;54.60;;;;;;5080361;28;20034;-83
2021/04/15 09:08:41;;;;;;;12.30;8.60;;;17.90;55.50;;;;;;5094689;28;21757;-83
2021/04/15 09:11:22;;;;;;;12.98;8.40;;;17.50;55.30;;;;;;5093160;28;20101;-84
2021/04/15 09:14:03;;;;;;;13.65;8.90;;;17.30;56.60;;;;;;5093139;28;20039;-83
2021/04/15 09:16:38;;;;;;;15.43;9.68;;;17.90;57.30;;;;;;5093972;28;20032;-84
2021/04/15 09:19:56;;;;;;;17.48;9.70;;;18.50;56.10;;;;;;5094788;28;20024;-83
2021/04/15 09:22:44;;;;;;;21.02;12.15;;;19.10;55.10;;;;;;5078909;28;20024;-83
2021/04/15 09:25:16;;;;;;;14.05;9.80;;;19.60;53.00;;;;;;5082707;28;20025;-84
2021/04/15 09:27:56;;;;;;;16.15;9.50;;;19.80;52.10;;;;;;5092186;28;20020;-84
2021/04/15 09:30:38;;;;;;;12.77;8.82;;;19.80;51.80;;;;;;5093421;28;20042;-84
2021/04/15 09:33:37;;;;;;;18.27;9.27;;;19.80;51.90;;;;;;5073361;28;20040;-84
2021/04/15 09:36:35;;;;;;;13.63;9.13;;;19.90;52.00;;;;;;5105998;28;20024;-83
2021/04/15 09:39:32;;;;;;;15.20;9.30;;;19.80;51.90;;;;;;5079932;28;20459;-83
2021/04/15 09:42:01;;;;;;;12.52;8.10;;;20.10;51.90;;;;;;5072832;28;20116;-84
2021/04/15 09:44:47;;;;;;;13.38;8.70;;;20.10;50.90;;;;;;5087309;28;20347;-83
2021/04/15 09:47:44;;;;;;;17.67;12.00;;;20.10;51.00;;;;;;5084080;28;20020;-84
2021/04/15 09:50:20;;;;;;;20.38;11.73;;;20.20;50.80;;;;;;5080411;28;20446;-84
2021/04/15 09:53:07;;;;;;;23.65;13.73;;;19.70;51.00;;;;;;5093621;28;20023;-84
2021/04/15 09:55:44;;;;;;;16.67;11.02;;;19.10;52.20;;;;;;5081136;28;20031;-83
2021/04/15 09:58:28;;;;;;;15.43;9.27;;;19.00;53.30;;;;;;5092321;28;20438;-83
2021/04/15 10:00:58;;;;;;;17.33;10.77;;;18.90;52.70;;;;;;5092370;28;20501;-84
2021/04/15 10:03:48;;;;;;;17.60;11.15;;;18.30;53.10;;;;;;5079284;28;20366;-84
2021/04/15 10:06:27;;;;;;;16.52;11.38;;;17.60;54.20;;;;;;5081088;28;20027;-84
2021/04/15 10:09:25;;;;;;;18.73;13.13;;;16.90;55.40;;;;;;5078691;28;20040;-83
2021/04/15 10:12:18;;;;;;;20.40;12.98;;;16.30;57.10;;;;;;5046349;28;20532;-83
2021/04/15 10:15:05;;;;;;;20.10;11.43;;;15.90;58.50;;;;;;5082038;28;20024;-83
2021/04/15 10:17:55;;;;;;;20.63;11.77;;;15.70;59.40;;;;;;5087896;28;20020;-83
2021/04/15 10:20:38;;;;;;;20.67;12.13;;;15.50;60.00;;;;;;5085078;28;20110;-83
2021/04/15 10:23:22;;;;;;;30.13;14.73;;;15.40;60.70;;;;;;5079257;28;20054;-83
2021/04/15 10:26:08;;;;;;;25.70;12.60;;;15.30;61.10;;;;;;5077686;28;20032;-82
2021/04/15 10:28:34;;;;;;;25.63;11.57;;;15.10;61.70;;;;;;5092336;28;20020;-82
2021/04/15 10:31:11;;;;;;;27.60;13.07;;;14.90;62.40;;;;;;5091040;28;20458;-82
2021/04/15 10:33:56;;;;;;;26.27;13.18;;;14.90;63.00;;;;;;5081767;28;20028;-68
2021/04/15 10:36:29;;;;;;;27.00;12.25;;;14.90;63.20;;;;;;5090928;28;20016;-80
2021/04/15 10:39:21;;;;;;;24.08;12.77;;;14.80;63.50;;;;;;5092208;28;20118;-81
2021/04/15 10:42:30;;;;;;;19.35;12.10;;;14.70;63.70;;;;;;5081367;28;20031;-82
2021/04/15 10:45:16;;;;;;;26.60;14.43;;;14.60;64.00;;;;;;5094468;28;20024;-81
2021/04/15 10:48:12;;;;;;;30.02;16.75;;;14.60;64.40;;;;;;5103039;28;20021;-82
2021/04/15 10:51:03;;;;;;;34.47;21.00;;;14.50;65.40;;;;;;5107510;28;20108;-81
2021/04/15 10:53:51;;;;;;;35.88;23.42;;;14.50;65.00;;;;;;5117155;28;20027;-79
2021/04/15 10:56:25;;;;;;;32.95;20.13;;;14.40;65.20;;;;;;5114543;28;20031;-82
2021/04/15 10:59:06;;;;;;;30.85;21.08;;;14.30;66.40;;;;;;5085652;28;20027;-81
2021/04/15 11:01:44;;;;;;;24.33;14.00;;;14.30;66.30;;;;;;5095749;28;20111;-81
2021/04/15 11:04:10;;;;;;;22.33;13.65;;;14.40;66.80;;;;;;5085413;28;20021;-81
2021/04/15 11:06:40;;;;;;;19.90;12.10;;;14.60;67.40;;;;;;5093767;28;20514;-81
2021/04/15 11:09:28;;;;;;;22.30;13.52;;;14.80;66.50;;;;;;5096239;28;20020;-81
2021/04/15 11:12:15;;;;;;;25.65;12.98;;;14.80;66.50;;;;;;5074025;28;20054;-81
2021/04/15 11:14:44;;;;;;;19.60;12.07;;;15.00;66.10;;;;;;5071411;28;20466;-81
2021/04/15 11:17:33;;;;;;;24.52;13.18;;;14.90;65.80;;;;;;5085684;28;20021;-81
2021/04/15 11:20:13;;;;;;;24.60;13.45;;;14.80;65.80;;;;;;5092127;28;20426;-81
2021/04/15 11:22:52;;;;;;;22.48;13.93;;;14.70;66.00;;;;;;5077319;28;20055;-81
2021/04/15 11:25:41;;;;;;;28.35;13.50;;;14.60;66.50;;;;;;5079356;28;20020;-81
2021/04/15 11:28:15;;;;;;;27.92;17.40;;;14.50;66.80;;;;;;5069246;28;20026;-82
2021/04/15 11:31:07;;;;;;;26.85;17.38;;;14.40;67.00;;;;;;5095414;28;20020;-81
2021/04/15 11:33:35;;;;;;;20.00;11.80;;;14.30;67.20;;;;;;5081358;28;20066;-81
2021/04/15 11:36:15;;;;;;;23.80;12.05;;;14.40;67.10;;;;;;5096128;28;20028;-81
2021/04/15 11:38:47;;;;;;;19.58;12.43;;;14.40;66.80;;;;;;5095055;28;20474;-81
2021/04/15 11:41:15;;;;;;;24.02;13.32;;;14.40;66.70;;;;;;5080274;28;20830;-81
2021/04/15 11:43:41;;;;;;;18.17;11.10;;;14.40;66.70;;;;;;5096600;28;20104;-81
2021/04/15 11:46:23;;;;;;;19.90;11.77;;;14.50;66.80;;;;;;5094411;28;20115;-81
2021/04/15 11:49:18;;;;;;;19.60;11.02;;;14.70;66.90;;;;;;5094975;28;20024;-81
2021/04/15 11:52:03;;;;;;;18.90;11.10;;;14.80;66.10;;;;;;5080295;28;20024;-80
2021/04/15 11:54:30;;;;;;;22.90;11.32;;;14.90;65.60;;;;;;5080343;28;20028;-80
2021/04/15 11:56:56;;;;;;;19.85;11.48;;;14.90;65.60;;;;;;5080268;28;20038;-80
2021/04/15 11:59:29;;;;;;;18.48;11.00;;;14.90;65.50;;;;;;5083633;28;20104;-80
2021/04/15 12:02:14;;;;;;;22.95;11.48;;;15.00;65.50;;;;;;5093366;28;20020;-80
2021/04/15 12:04:39;;;;;;;21.85;11.32;;;14.90;65.70;;;;;;5095736;28;20035;-80
2021/04/15 12:07:22;;;;;;;20.92;11.80;;;14.90;65.90;;;;;;5093715;28;20044;-80
2021/04/15 12:09:50;;;;;;;19.80;10.57;;;15.00;65.90;;;;;;5094456;28;20017;-80
2021/04/15 12:12:32;;;;;;;17.23;10.35;;;15.00;65.60;;;;;;5076567;28;20059;-81
2021/04/15 12:14:58;;;;;;;16.55;10.52;;;15.10;65.50;;;;;;5095656;28;20027;-80
2021/04/15 12:18:06;;;;;;;15.40;9.35;;;15.20;65.30;;;;;;5093947;28;20041;-80
2021/04/15 12:21:02;;;;;;;13.80;8.63;;;15.10;64.60;;;;;;5093843;28;20043;-81
2021/04/15 12:23:53;;;;;;;18.25;9.52;;;14.90;64.70;;;;;;5073052;28;20051;-80
2021/04/15 12:26:26;;;;;;;13.75;9.40;;;14.70;65.10;;;;;;5080051;28;20012;-80
2021/04/15 12:29:12;;;;;;;18.40;10.25;;;14.50;65.70;;;;;;5095429;28;20020;-80
2021/04/15 12:31:47;;;;;;;19.98;9.40;;;14.50;66.10;;;;;;5083089;28;20044;-81
2021/04/15 12:34:13;;;;;;;;;;;14.40;66.20;;;;;;5080138;28;20029;-82
2021/04/15 12:36:46;;;;;;;12.80;8.90;;;14.40;66.30;;;;;;5094447;28;19915;-82
2021/04/15 12:39:31;;;;;;;17.13;10.55;;;14.20;66.20;;;;;;5093039;28;20112;-82
2021/04/15 12:41:57;;;;;;;22.58;10.75;;;14.10;66.90;;;;;;5093970;28;20031;-81
2021/04/15 12:44:27;;;;;;;19.88;11.27;;;14.10;67.20;;;;;;5093357;28;20024;-82
2021/04/15 12:46:54;;;;;;;23.70;12.15;;;14.00;67.80;;;;;;5094352;28;20058;-81
2021/04/15 12:49:24;;;;;;;20.80;11.30;;;13.90;68.60;;;;;;5094159;28;20052;-81
2021/04/15 12:51:56;;;;;;;24.02;13.32;;;13.90;68.70;;;;;;5088240;28;20065;-81
2021/04/15 12:54:34;;;;;;;25.80;15.18;;;14.00;69.10;;;;;;5088214;28;20030;-81
2021/04/15 12:57:03;;;;;;;31.45;17.35;;;14.00;69.20;;;;;;5082433;28;20028;-81
2021/04/15 12:59:32;;;;;;;32.33;15.98;;;14.00;69.10;;;;;;5104923;28;20088;-81
2021/04/15 13:01:58;;;;;;;31.55;17.65;;;14.00;69.40;;;;;;5102900;28;20026;-81
2021/04/15 13:04:51;;;;;;;31.50;18.17;;;14.00;70.00;;;;;;5079912;28;20043;-83
2021/04/15 13:07:33;;;;;;;30.20;16.48;;;14.10;70.10;;;;;;5084052;28;20127;-81
2021/04/15 13:10:15;;;;;;;32.00;16.75;;;14.10;69.90;;;;;;5080511;28;20024;-81
2021/04/15 13:12:51;;;;;;;28.52;16.80;;;13.90;70.00;;;;;;5081579;28;20150;-81
2021/04/15 13:15:23;;;;;;;35.17;17.88;;;13.80;70.30;;;;;;5080983;28;20029;-81
2021/04/15 13:18:00;;;;;;;34.63;19.63;;;13.70;70.70;;;;;;5073092;28;20458;-82
2021/04/15 13:20:25;;;;;;;29.85;19.10;;;13.60;71.10;;;;;;5086712;28;20024;-82
2021/04/15 13:23:07;;;;;;;34.78;19.73;;;13.40;71.50;;;;;;5078826;28;20058;-80
2021/04/15 13:25:53;;;;;;;37.88;18.73;;;13.30;72.10;;;;;;5079679;28;20020;-81
2021/04/15 13:28:25;;;;;;;36.63;20.90;;;13.20;72.50;;;;;;5041049;28;20035;-81
2021/04/15 13:30:52;;;;;;;48.15;22.98;;;13.20;73.00;;;;;;5092851;28;20477;-81
2021/04/15 13:33:21;;;;;;;41.83;22.52;;;13.10;73.10;;;;;;5092376;28;20070;-81